sensor_id;sensor_type;location;lat;lon;timestamp;temperature;humidity
60293;DHT22;52402;52.670;6.750;2023-12-04T00:01:19;0.20;99.90
60293;DHT22;52402;52.670;6.750;2023-12-04T00:03:47;0.20;99.90
60293;DHT22;52402;52.670;6.750;2023-12-04T00:06:13;0.20;99.90
60293;DHT22;52402;52.670;6.750;2023-12-04T00:08:39;0.20;99.90
60293;DHT22;52402;52.670;6.750;2023-12-04T00:11:05;0.30;99.90
60293;DHT22;52402;52.670;6.750;2023-12-04T00:13:38;0.30;99.90
60293;DHT22;52402;52.670;6.750;2023-12-04T00:16:07;0.30;99.90
60293;DHT22;52402;52.670;6.750;2023-12-04T00:18:33;0.30;99.90
60293;DHT22;52402;52.670;6.750;2023-12-04T00:20:59;0.30;99.90
60293;DHT22;52402;52.670;6.750;2023-12-04T00:23:24;0.20;99.90
60293;DHT22;52402;52.670;6.750;2023-12-04T00:25:50;0.30;99.90
60293;DHT22;52402;52.670;6.750;2023-12-04T00:28:15;0.30;99.90
60293;DHT22;52402;52.670;6.750;2023-12-04T00:30:41;0.30;99.90
60293;DHT22;52402;52.670;6.750;2023-12-04T00:33:07;0.30;99.90
60293;DHT22;52402;52.670;6.750;2023-12-04T00:35:35;0.30;99.90
60293;DHT22;52402;52.670;6.750;2023-12-04T00:38:00;0.30;99.90
60293;DHT22;52402;52.670;6.750;2023-12-04T00:40:26;0.30;99.90
60293;DHT22;52402;52.670;6.750;2023-12-04T00:42:56;0.30;99.90
60293;DHT22;52402;52.670;6.750;2023-12-04T00:45:21;0.30;99.90
60293;DHT22;52402;52.670;6.750;2023-12-04T00:47:47;0.30;99.90
60293;DHT22;52402;52.670;6.750;2023-12-04T00:50:12;0.30;99.90
60293;DHT22;52402;52.670;6.750;2023-12-04T00:52:40;0.30;99.90
60293;DHT22;52402;52.670;6.750;2023-12-04T00:55:13;0.30;99.90
60293;DHT22;52402;52.670;6.750;2023-12-04T00:57:49;0.30;99.90
60293;DHT22;52402;52.670;6.750;2023-12-04T01:00:17;0.30;99.90
60293;DHT22;52402;52.670;6.750;2023-12-04T01:02:43;0.30;99.90
60293;DHT22;52402;52.670;6.750;2023-12-04T01:05:09;0.30;99.90
60293;DHT22;52402;52.670;6.750;2023-12-04T01:07:35;0.30;99.90
60293;DHT22;52402;52.670;6.750;2023-12-04T01:10:00;0.30;99.90
60293;DHT22;52402;52.670;6.750;2023-12-04T01:12:26;0.30;99.90
60293;DHT22;52402;52.670;6.750;2023-12-04T01:14:52;0.30;99.90
60293;DHT22;52402;52.670;6.750;2023-12-04T01:17:20;0.30;99.90
60293;DHT22;52402;52.670;6.750;2023-12-04T01:19:51;0.30;99.90
60293;DHT22;52402;52.670;6.750;2023-12-04T01:22:19;0.30;99.90
60293;DHT22;52402;52.670;6.750;2023-12-04T01:24:45;0.30;99.90
60293;DHT22;52402;52.670;6.750;2023-12-04T01:27:10;0.30;99.90
60293;DHT22;52402;52.670;6.750;2023-12-04T01:29:43;0.30;99.90
60293;DHT22;52402;52.670;6.750;2023-12-04T01:32:09;0.30;99.90
60293;DHT22;52402;52.670;6.750;2023-12-04T01:34:37;0.40;99.90
60293;DHT22;52402;52.670;6.750;2023-12-04T01:37:07;0.40;99.90
60293;DHT22;52402;52.670;6.750;2023-12-04T01:39:35;0.40;99.90
60293;DHT22;52402;52.670;6.750;2023-12-04T01:42:13;0.30;99.90
60293;DHT22;52402;52.670;6.750;2023-12-04T01:44:43;0.30;99.90
60293;DHT22;52402;52.670;6.750;2023-12-04T01:47:09;0.40;99.90
60293;DHT22;52402;52.670;6.750;2023-12-04T01:49:36;0.40;99.90
60293;DHT22;52402;52.670;6.750;2023-12-04T01:52:02;0.40;99.90
60293;DHT22;52402;52.670;6.750;2023-12-04T01:54:29;0.40;99.90
60293;DHT22;52402;52.670;6.750;2023-12-04T01:56:58;0.40;99.90
60293;DHT22;52402;52.670;6.750;2023-12-04T01:59:25;0.40;99.90
60293;DHT22;52402;52.670;6.750;2023-12-04T02:02:03;0.40;99.90
60293;DHT22;52402;52.670;6.750;2023-12-04T02:04:30;0.40;99.90
60293;DHT22;52402;52.670;6.750;2023-12-04T02:06:56;0.40;99.90
60293;DHT22;52402;52.670;6.750;2023-12-04T02:09:22;0.40;99.90
60293;DHT22;52402;52.670;6.750;2023-12-04T02:11:50;0.40;99.90
60293;DHT22;52402;52.670;6.750;2023-12-04T02:14:18;0.40;99.90
60293;DHT22;52402;52.670;6.750;2023-12-04T02:16:44;0.40;99.90
60293;DHT22;52402;52.670;6.750;2023-12-04T02:19:16;0.40;99.90
60293;DHT22;52402;52.670;6.750;2023-12-04T02:21:42;0.40;99.90
60293;DHT22;52402;52.670;6.750;2023-12-04T02:24:07;0.40;99.90
60293;DHT22;52402;52.670;6.750;2023-12-04T02:26:39;0.40;99.90
60293;DHT22;52402;52.670;6.750;2023-12-04T02:29:13;0.40;99.90
60293;DHT22;52402;52.670;6.750;2023-12-04T02:31:43;0.40;99.90
60293;DHT22;52402;52.670;6.750;2023-12-04T02:34:10;0.40;99.90
60293;DHT22;52402;52.670;6.750;2023-12-04T02:36:38;0.40;99.90
60293;DHT22;52402;52.670;6.750;2023-12-04T02:39:05;0.50;99.90
60293;DHT22;52402;52.670;6.750;2023-12-04T02:41:31;0.50;99.90
60293;DHT22;52402;52.670;6.750;2023-12-04T02:43:57;0.40;99.90
60293;DHT22;52402;52.670;6.750;2023-12-04T02:46:22;0.50;99.90
60293;DHT22;52402;52.670;6.750;2023-12-04T02:48:48;0.50;99.90
60293;DHT22;52402;52.670;6.750;2023-12-04T02:51:16;0.50;99.90
60293;DHT22;52402;52.670;6.750;2023-12-04T02:53:41;0.40;99.90
60293;DHT22;52402;52.670;6.750;2023-12-04T02:56:24;0.50;99.90
60293;DHT22;52402;52.670;6.750;2023-12-04T02:58:49;0.40;99.90
60293;DHT22;52402;52.670;6.750;2023-12-04T03:01:15;0.50;99.90
60293;DHT22;52402;52.670;6.750;2023-12-04T03:03:43;0.50;99.90
60293;DHT22;52402;52.670;6.750;2023-12-04T03:06:11;0.50;99.90
60293;DHT22;52402;52.670;6.750;2023-12-04T03:08:37;0.50;99.90
60293;DHT22;52402;52.670;6.750;2023-12-04T03:11:02;0.50;99.90
60293;DHT22;52402;52.670;6.750;2023-12-04T03:13:29;0.50;99.90
60293;DHT22;52402;52.670;6.750;2023-12-04T03:16:00;0.50;99.90
60293;DHT22;52402;52.670;6.750;2023-12-04T03:18:28;0.50;99.90
60293;DHT22;52402;52.670;6.750;2023-12-04T03:20:54;0.50;99.90
60293;DHT22;52402;52.670;6.750;2023-12-04T03:23:25;0.50;99.90
60293;DHT22;52402;52.670;6.750;2023-12-04T03:25:50;0.50;99.90
60293;DHT22;52402;52.670;6.750;2023-12-04T03:28:18;0.50;99.90
60293;DHT22;52402;52.670;6.750;2023-12-04T03:30:49;0.50;99.90
60293;DHT22;52402;52.670;6.750;2023-12-04T03:33:15;0.50;99.90
60293;DHT22;52402;52.670;6.750;2023-12-04T03:35:40;0.60;99.90
60293;DHT22;52402;52.670;6.750;2023-12-04T03:38:06;0.50;99.90
60293;DHT22;52402;52.670;6.750;2023-12-04T03:40:32;0.60;99.90
60293;DHT22;52402;52.670;6.750;2023-12-04T03:42:57;0.50;99.90
60293;DHT22;52402;52.670;6.750;2023-12-04T03:45:34;0.60;99.90
60293;DHT22;52402;52.670;6.750;2023-12-04T03:48:00;0.60;99.90
60293;DHT22;52402;52.670;6.750;2023-12-04T03:50:27;0.60;99.90
60293;DHT22;52402;52.670;6.750;2023-12-04T03:52:55;0.60;99.90
60293;DHT22;52402;52.670;6.750;2023-12-04T03:55:21;0.60;99.90
60293;DHT22;52402;52.670;6.750;2023-12-04T03:57:47;0.60;99.90
60293;DHT22;52402;52.670;6.750;2023-12-04T04:00:15;0.60;99.90
60293;DHT22;52402;52.670;6.750;2023-12-04T04:02:43;0.50;99.90
60293;DHT22;52402;52.670;6.750;2023-12-04T04:05:09;0.60;99.90
60293;DHT22;52402;52.670;6.750;2023-12-04T04:07:37;0.60;99.90
60293;DHT22;52402;52.670;6.750;2023-12-04T04:10:03;0.50;99.90
60293;DHT22;52402;52.670;6.750;2023-12-04T04:12:32;0.50;99.90
60293;DHT22;52402;52.670;6.750;2023-12-04T04:14:58;0.60;99.90
60293;DHT22;52402;52.670;6.750;2023-12-04T04:17:23;0.60;99.90
60293;DHT22;52402;52.670;6.750;2023-12-04T04:19:54;0.60;99.90
60293;DHT22;52402;52.670;6.750;2023-12-04T04:22:20;0.60;99.90
60293;DHT22;52402;52.670;6.750;2023-12-04T04:24:46;0.60;99.90
60293;DHT22;52402;52.670;6.750;2023-12-04T04:27:15;0.60;99.90
60293;DHT22;52402;52.670;6.750;2023-12-04T04:29:41;0.60;99.90
60293;DHT22;52402;52.670;6.750;2023-12-04T04:32:07;0.60;99.90
60293;DHT22;52402;52.670;6.750;2023-12-04T04:34:32;0.60;99.90
60293;DHT22;52402;52.670;6.750;2023-12-04T04:37:00;0.60;99.90
60293;DHT22;52402;52.670;6.750;2023-12-04T04:39:26;0.60;99.90
60293;DHT22;52402;52.670;6.750;2023-12-04T04:41:51;0.60;99.90
60293;DHT22;52402;52.670;6.750;2023-12-04T04:44:17;0.60;99.90
60293;DHT22;52402;52.670;6.750;2023-12-04T04:46:48;0.60;99.90
60293;DHT22;52402;52.670;6.750;2023-12-04T04:49:16;0.60;99.90
60293;DHT22;52402;52.670;6.750;2023-12-04T04:51:42;0.60;99.90
60293;DHT22;52402;52.670;6.750;2023-12-04T04:54:13;0.60;99.90
60293;DHT22;52402;52.670;6.750;2023-12-04T04:56:41;0.60;99.90
60293;DHT22;52402;52.670;6.750;2023-12-04T04:59:07;0.60;99.90
60293;DHT22;52402;52.670;6.750;2023-12-04T05:01:36;0.60;99.90
60293;DHT22;52402;52.670;6.750;2023-12-04T05:04:03;0.60;99.90
60293;DHT22;52402;52.670;6.750;2023-12-04T05:06:31;0.60;99.90
60293;DHT22;52402;52.670;6.750;2023-12-04T05:09:00;0.60;99.90
60293;DHT22;52402;52.670;6.750;2023-12-04T05:11:28;0.60;99.90
60293;DHT22;52402;52.670;6.750;2023-12-04T05:13:54;0.60;99.90
60293;DHT22;52402;52.670;6.750;2023-12-04T05:16:19;0.60;99.90
60293;DHT22;52402;52.670;6.750;2023-12-04T05:18:45;0.60;99.90
60293;DHT22;52402;52.670;6.750;2023-12-04T05:21:14;0.60;99.90
60293;DHT22;52402;52.670;6.750;2023-12-04T05:23:40;0.60;99.90
60293;DHT22;52402;52.670;6.750;2023-12-04T05:26:06;0.60;99.90
60293;DHT22;52402;52.670;6.750;2023-12-04T05:28:35;0.60;99.90
60293;DHT22;52402;52.670;6.750;2023-12-04T05:31:00;0.60;99.90
60293;DHT22;52402;52.670;6.750;2023-12-04T05:33:26;0.60;99.90
60293;DHT22;52402;52.670;6.750;2023-12-04T05:35:54;0.60;99.90
60293;DHT22;52402;52.670;6.750;2023-12-04T05:38:19;0.60;99.90
60293;DHT22;52402;52.670;6.750;2023-12-04T05:40:47;0.60;99.90
60293;DHT22;52402;52.670;6.750;2023-12-04T05:43:14;0.70;99.90
60293;DHT22;52402;52.670;6.750;2023-12-04T05:45:42;0.60;99.90
60293;DHT22;52402;52.670;6.750;2023-12-04T05:48:07;0.60;99.90
60293;DHT22;52402;52.670;6.750;2023-12-04T05:50:33;0.60;99.90
60293;DHT22;52402;52.670;6.750;2023-12-04T05:53:03;0.60;99.90
60293;DHT22;52402;52.670;6.750;2023-12-04T05:55:29;0.60;99.90
60293;DHT22;52402;52.670;6.750;2023-12-04T05:57:54;0.60;99.90
60293;DHT22;52402;52.670;6.750;2023-12-04T06:00:20;0.60;99.90
60293;DHT22;52402;52.670;6.750;2023-12-04T06:02:47;0.60;99.90
60293;DHT22;52402;52.670;6.750;2023-12-04T06:05:13;0.60;99.90
60293;DHT22;52402;52.670;6.750;2023-12-04T06:07:39;0.60;99.90
60293;DHT22;52402;52.670;6.750;2023-12-04T06:10:05;0.70;99.90
60293;DHT22;52402;52.670;6.750;2023-12-04T06:12:31;0.60;99.90
60293;DHT22;52402;52.670;6.750;2023-12-04T06:14:59;0.60;99.90
60293;DHT22;52402;52.670;6.750;2023-12-04T06:17:25;0.60;99.90
60293;DHT22;52402;52.670;6.750;2023-12-04T06:19:51;0.60;99.90
60293;DHT22;52402;52.670;6.750;2023-12-04T06:22:17;0.60;99.90
60293;DHT22;52402;52.670;6.750;2023-12-04T06:24:45;0.60;99.90
60293;DHT22;52402;52.670;6.750;2023-12-04T06:27:15;0.50;99.90
60293;DHT22;52402;52.670;6.750;2023-12-04T06:29:41;0.50;99.90
60293;DHT22;52402;52.670;6.750;2023-12-04T06:32:07;0.50;99.90
60293;DHT22;52402;52.670;6.750;2023-12-04T06:34:33;0.50;99.90
60293;DHT22;52402;52.670;6.750;2023-12-04T06:36:59;0.50;99.90
60293;DHT22;52402;52.670;6.750;2023-12-04T06:39:32;0.50;99.90
60293;DHT22;52402;52.670;6.750;2023-12-04T06:41:58;0.50;99.90
60293;DHT22;52402;52.670;6.750;2023-12-04T06:44:26;0.50;99.90
60293;DHT22;52402;52.670;6.750;2023-12-04T06:46:54;0.50;99.90
60293;DHT22;52402;52.670;6.750;2023-12-04T06:49:23;0.50;99.90
60293;DHT22;52402;52.670;6.750;2023-12-04T06:51:49;0.50;99.90
60293;DHT22;52402;52.670;6.750;2023-12-04T06:54:15;0.50;99.90
60293;DHT22;52402;52.670;6.750;2023-12-04T06:56:45;0.50;99.90
60293;DHT22;52402;52.670;6.750;2023-12-04T06:59:11;0.50;99.90
60293;DHT22;52402;52.670;6.750;2023-12-04T07:01:37;0.50;99.90
60293;DHT22;52402;52.670;6.750;2023-12-04T07:04:02;0.50;99.90
60293;DHT22;52402;52.670;6.750;2023-12-04T07:06:35;0.50;99.90
60293;DHT22;52402;52.670;6.750;2023-12-04T07:09:01;0.50;99.90
60293;DHT22;52402;52.670;6.750;2023-12-04T07:11:26;0.50;99.90
60293;DHT22;52402;52.670;6.750;2023-12-04T07:13:52;0.50;99.90
60293;DHT22;52402;52.670;6.750;2023-12-04T07:16:18;0.50;99.90
60293;DHT22;52402;52.670;6.750;2023-12-04T07:18:44;0.50;99.90
60293;DHT22;52402;52.670;6.750;2023-12-04T07:21:12;0.50;99.90
60293;DHT22;52402;52.670;6.750;2023-12-04T07:23:38;0.50;99.90
60293;DHT22;52402;52.670;6.750;2023-12-04T07:26:03;0.50;99.90
60293;DHT22;52402;52.670;6.750;2023-12-04T07:28:32;0.50;99.90
60293;DHT22;52402;52.670;6.750;2023-12-04T07:30:57;0.50;99.90
60293;DHT22;52402;52.670;6.750;2023-12-04T07:33:23;0.50;99.90
60293;DHT22;52402;52.670;6.750;2023-12-04T07:35:49;0.50;99.90
60293;DHT22;52402;52.670;6.750;2023-12-04T07:38:14;0.50;99.90
60293;DHT22;52402;52.670;6.750;2023-12-04T07:40:40;0.60;99.90
60293;DHT22;52402;52.670;6.750;2023-12-04T07:43:06;0.60;99.90
60293;DHT22;52402;52.670;6.750;2023-12-04T07:45:31;0.60;99.90
60293;DHT22;52402;52.670;6.750;2023-12-04T07:47:57;0.60;99.90
60293;DHT22;52402;52.670;6.750;2023-12-04T07:50:23;0.60;99.90
60293;DHT22;52402;52.670;6.750;2023-12-04T07:52:53;0.60;99.90
60293;DHT22;52402;52.670;6.750;2023-12-04T07:55:21;0.60;99.90
60293;DHT22;52402;52.670;6.750;2023-12-04T07:57:46;0.60;99.90
60293;DHT22;52402;52.670;6.750;2023-12-04T08:00:13;0.60;99.90
60293;DHT22;52402;52.670;6.750;2023-12-04T08:02:39;0.60;99.90
60293;DHT22;52402;52.670;6.750;2023-12-04T08:05:15;0.60;99.90
60293;DHT22;52402;52.670;6.750;2023-12-04T08:07:40;0.60;99.90
60293;DHT22;52402;52.670;6.750;2023-12-04T08:10:06;0.60;99.90
60293;DHT22;52402;52.670;6.750;2023-12-04T08:12:32;0.60;99.90
60293;DHT22;52402;52.670;6.750;2023-12-04T08:14:59;0.70;99.90
60293;DHT22;52402;52.670;6.750;2023-12-04T08:17:29;0.70;99.90
60293;DHT22;52402;52.670;6.750;2023-12-04T08:19:58;0.70;99.90
60293;DHT22;52402;52.670;6.750;2023-12-04T08:22:27;0.70;99.90
60293;DHT22;52402;52.670;6.750;2023-12-04T08:24:55;0.70;99.90
60293;DHT22;52402;52.670;6.750;2023-12-04T08:27:26;0.70;99.90
60293;DHT22;52402;52.670;6.750;2023-12-04T08:29:56;0.70;99.90
60293;DHT22;52402;52.670;6.750;2023-12-04T08:32:24;0.80;99.90
60293;DHT22;52402;52.670;6.750;2023-12-04T08:34:51;0.70;99.90
60293;DHT22;52402;52.670;6.750;2023-12-04T08:37:18;0.80;99.90
60293;DHT22;52402;52.670;6.750;2023-12-04T08:39:47;0.80;99.90
60293;DHT22;52402;52.670;6.750;2023-12-04T08:42:15;0.80;99.90
60293;DHT22;52402;52.670;6.750;2023-12-04T08:44:43;0.80;99.90
60293;DHT22;52402;52.670;6.750;2023-12-04T08:47:11;0.80;99.90
60293;DHT22;52402;52.670;6.750;2023-12-04T08:49:37;0.90;99.90
60293;DHT22;52402;52.670;6.750;2023-12-04T08:52:09;0.90;99.90
60293;DHT22;52402;52.670;6.750;2023-12-04T08:54:38;0.90;99.90
60293;DHT22;52402;52.670;6.750;2023-12-04T08:57:04;1.00;99.90
60293;DHT22;52402;52.670;6.750;2023-12-04T08:59:33;1.00;99.90
60293;DHT22;52402;52.670;6.750;2023-12-04T09:01:58;1.00;99.90
60293;DHT22;52402;52.670;6.750;2023-12-04T09:04:24;1.10;99.90
60293;DHT22;52402;52.670;6.750;2023-12-04T09:07:07;1.10;99.90
60293;DHT22;52402;52.670;6.750;2023-12-04T09:09:33;1.10;99.90
60293;DHT22;52402;52.670;6.750;2023-12-04T09:12:03;1.20;99.90
60293;DHT22;52402;52.670;6.750;2023-12-04T09:14:32;1.20;99.90
60293;DHT22;52402;52.670;6.750;2023-12-04T09:17:00;1.30;99.90
60293;DHT22;52402;52.670;6.750;2023-12-04T09:19:26;1.30;99.90
60293;DHT22;52402;52.670;6.750;2023-12-04T09:21:51;1.30;99.90
60293;DHT22;52402;52.670;6.750;2023-12-04T09:24:17;1.40;99.90
60293;DHT22;52402;52.670;6.750;2023-12-04T09:26:42;1.50;99.90
60293;DHT22;52402;52.670;6.750;2023-12-04T09:29:11;1.50;99.90
60293;DHT22;52402;52.670;6.750;2023-12-04T09:31:39;1.50;99.90
60293;DHT22;52402;52.670;6.750;2023-12-04T09:34:05;1.60;99.90
60293;DHT22;52402;52.670;6.750;2023-12-04T09:36:31;1.60;99.90
60293;DHT22;52402;52.670;6.750;2023-12-04T09:38:56;1.60;99.90
60293;DHT22;52402;52.670;6.750;2023-12-04T09:41:25;1.70;99.90
60293;DHT22;52402;52.670;6.750;2023-12-04T09:43:51;1.70;99.90
60293;DHT22;52402;52.670;6.750;2023-12-04T09:46:21;1.80;99.90
60293;DHT22;52402;52.670;6.750;2023-12-04T09:48:47;1.80;99.90
60293;DHT22;52402;52.670;6.750;2023-12-04T09:51:14;1.90;99.90
60293;DHT22;52402;52.670;6.750;2023-12-04T09:53:42;1.90;99.90
60293;DHT22;52402;52.670;6.750;2023-12-04T09:56:25;1.90;99.90
60293;DHT22;52402;52.670;6.750;2023-12-04T09:58:58;2.00;99.90
60293;DHT22;52402;52.670;6.750;2023-12-04T10:01:29;2.00;99.90
60293;DHT22;52402;52.670;6.750;2023-12-04T10:03:57;2.00;99.90
60293;DHT22;52402;52.670;6.750;2023-12-04T10:06:26;2.00;99.90
60293;DHT22;52402;52.670;6.750;2023-12-04T10:08:53;2.00;99.90
60293;DHT22;52402;52.670;6.750;2023-12-04T10:11:22;2.00;99.90
60293;DHT22;52402;52.670;6.750;2023-12-04T10:13:48;2.00;99.90
60293;DHT22;52402;52.670;6.750;2023-12-04T10:16:36;2.10;99.90
60293;DHT22;52402;52.670;6.750;2023-12-04T10:19:41;2.00;99.90
60293;DHT22;52402;52.670;6.750;2023-12-04T10:22:09;2.00;99.90
60293;DHT22;52402;52.670;6.750;2023-12-04T10:24:38;2.00;99.90
60293;DHT22;52402;52.670;6.750;2023-12-04T10:27:05;2.10;99.90
60293;DHT22;52402;52.670;6.750;2023-12-04T10:29:49;2.10;99.90
60293;DHT22;52402;52.670;6.750;2023-12-04T10:32:19;2.10;99.90
60293;DHT22;52402;52.670;6.750;2023-12-04T10:34:55;2.10;99.90
60293;DHT22;52402;52.670;6.750;2023-12-04T10:37:29;2.10;99.90
60293;DHT22;52402;52.670;6.750;2023-12-04T10:39:57;2.10;99.90
60293;DHT22;52402;52.670;6.750;2023-12-04T10:42:29;2.20;99.90
60293;DHT22;52402;52.670;6.750;2023-12-04T10:45:00;2.20;99.90
60293;DHT22;52402;52.670;6.750;2023-12-04T10:47:33;2.20;99.90
60293;DHT22;52402;52.670;6.750;2023-12-04T10:50:02;2.20;99.90
60293;DHT22;52402;52.670;6.750;2023-12-04T10:52:28;2.20;99.90
60293;DHT22;52402;52.670;6.750;2023-12-04T10:55:02;2.20;99.90
60293;DHT22;52402;52.670;6.750;2023-12-04T10:57:36;2.20;99.90
60293;DHT22;52402;52.670;6.750;2023-12-04T11:00:08;2.20;99.90
60293;DHT22;52402;52.670;6.750;2023-12-04T11:02:34;2.10;99.90
60293;DHT22;52402;52.670;6.750;2023-12-04T11:05:07;2.10;99.90
60293;DHT22;52402;52.670;6.750;2023-12-04T11:07:54;2.10;99.90
60293;DHT22;52402;52.670;6.750;2023-12-04T11:10:22;2.10;99.90
60293;DHT22;52402;52.670;6.750;2023-12-04T11:12:56;2.10;99.90
60293;DHT22;52402;52.670;6.750;2023-12-04T11:15:24;2.10;99.90
60293;DHT22;52402;52.670;6.750;2023-12-04T11:17:59;2.10;99.90
60293;DHT22;52402;52.670;6.750;2023-12-04T11:20:30;2.10;99.90
60293;DHT22;52402;52.670;6.750;2023-12-04T11:22:59;2.10;99.90
60293;DHT22;52402;52.670;6.750;2023-12-04T11:25:29;2.10;99.90
60293;DHT22;52402;52.670;6.750;2023-12-04T11:28:02;2.20;99.90
60293;DHT22;52402;52.670;6.750;2023-12-04T11:30:29;2.10;99.90
60293;DHT22;52402;52.670;6.750;2023-12-04T11:32:55;2.10;99.90
60293;DHT22;52402;52.670;6.750;2023-12-04T11:35:26;2.20;99.90
60293;DHT22;52402;52.670;6.750;2023-12-04T11:37:52;2.20;99.90
60293;DHT22;52402;52.670;6.750;2023-12-04T11:40:18;2.30;99.90
60293;DHT22;52402;52.670;6.750;2023-12-04T11:42:46;2.20;99.90
60293;DHT22;52402;52.670;6.750;2023-12-04T11:45:21;2.20;99.90
60293;DHT22;52402;52.670;6.750;2023-12-04T11:47:57;2.30;99.90
60293;DHT22;52402;52.670;6.750;2023-12-04T11:50:26;2.30;99.90
60293;DHT22;52402;52.670;6.750;2023-12-04T11:52:52;2.30;99.90
60293;DHT22;52402;52.670;6.750;2023-12-04T11:55:26;2.30;99.90
60293;DHT22;52402;52.670;6.750;2023-12-04T11:57:54;2.30;99.90
60293;DHT22;52402;52.670;6.750;2023-12-04T12:00:25;2.40;99.90
60293;DHT22;52402;52.670;6.750;2023-12-04T12:05:21;2.40;99.90
60293;DHT22;52402;52.670;6.750;2023-12-04T12:07:48;2.40;99.90
60293;DHT22;52402;52.670;6.750;2023-12-04T12:10:17;2.40;99.90
60293;DHT22;52402;52.670;6.750;2023-12-04T12:12:48;2.40;99.90
60293;DHT22;52402;52.670;6.750;2023-12-04T12:15:13;2.40;99.90
60293;DHT22;52402;52.670;6.750;2023-12-04T12:17:49;2.40;99.90
60293;DHT22;52402;52.670;6.750;2023-12-04T12:20:15;2.40;99.90
60293;DHT22;52402;52.670;6.750;2023-12-04T12:22:44;2.40;99.90
60293;DHT22;52402;52.670;6.750;2023-12-04T12:25:12;2.40;99.90
60293;DHT22;52402;52.670;6.750;2023-12-04T12:27:38;2.40;99.90
60293;DHT22;52402;52.670;6.750;2023-12-04T12:30:19;2.40;99.90
60293;DHT22;52402;52.670;6.750;2023-12-04T12:32:47;2.50;99.90
60293;DHT22;52402;52.670;6.750;2023-12-04T12:35:15;2.40;99.90
60293;DHT22;52402;52.670;6.750;2023-12-04T12:37:44;2.40;99.90
60293;DHT22;52402;52.670;6.750;2023-12-04T12:40:10;2.40;99.90
60293;DHT22;52402;52.670;6.750;2023-12-04T12:42:36;2.40;99.90
60293;DHT22;52402;52.670;6.750;2023-12-04T12:45:04;2.40;99.90
60293;DHT22;52402;52.670;6.750;2023-12-04T12:47:30;2.40;99.90
60293;DHT22;52402;52.670;6.750;2023-12-04T12:49:56;2.40;99.90
60293;DHT22;52402;52.670;6.750;2023-12-04T12:52:21;2.40;99.90
60293;DHT22;52402;52.670;6.750;2023-12-04T12:54:47;2.40;99.90
60293;DHT22;52402;52.670;6.750;2023-12-04T12:57:13;2.40;99.90
60293;DHT22;52402;52.670;6.750;2023-12-04T12:59:42;2.40;99.90
60293;DHT22;52402;52.670;6.750;2023-12-04T13:02:12;2.40;99.90
60293;DHT22;52402;52.670;6.750;2023-12-04T13:04:48;2.40;99.90
60293;DHT22;52402;52.670;6.750;2023-12-04T13:07:16;2.40;99.90
60293;DHT22;52402;52.670;6.750;2023-12-04T13:09:43;2.40;99.90
60293;DHT22;52402;52.670;6.750;2023-12-04T13:12:09;2.40;99.90
60293;DHT22;52402;52.670;6.750;2023-12-04T13:14:35;2.30;99.90
60293;DHT22;52402;52.670;6.750;2023-12-04T13:17:05;2.30;99.90
60293;DHT22;52402;52.670;6.750;2023-12-04T13:19:44;2.30;99.90
60293;DHT22;52402;52.670;6.750;2023-12-04T13:22:09;2.20;99.90
60293;DHT22;52402;52.670;6.750;2023-12-04T13:24:35;2.30;99.90
60293;DHT22;52402;52.670;6.750;2023-12-04T13:27:03;2.20;99.90
60293;DHT22;52402;52.670;6.750;2023-12-04T13:29:49;2.20;99.90
60293;DHT22;52402;52.670;6.750;2023-12-04T13:32:21;2.10;99.90
60293;DHT22;52402;52.670;6.750;2023-12-04T13:35:06;2.20;99.90
60293;DHT22;52402;52.670;6.750;2023-12-04T13:37:42;2.10;99.90
60293;DHT22;52402;52.670;6.750;2023-12-04T13:40:10;2.10;99.90
60293;DHT22;52402;52.670;6.750;2023-12-04T13:42:49;2.10;99.90
60293;DHT22;52402;52.670;6.750;2023-12-04T13:45:33;2.10;99.90
60293;DHT22;52402;52.670;6.750;2023-12-04T13:48:00;2.20;99.90
60293;DHT22;52402;52.670;6.750;2023-12-04T13:50:28;2.10;99.90
60293;DHT22;52402;52.670;6.750;2023-12-04T13:52:54;2.10;99.90
60293;DHT22;52402;52.670;6.750;2023-12-04T13:55:38;2.10;99.90
60293;DHT22;52402;52.670;6.750;2023-12-04T13:58:34;2.10;99.90
60293;DHT22;52402;52.670;6.750;2023-12-04T14:01:05;2.10;99.90
60293;DHT22;52402;52.670;6.750;2023-12-04T14:04:01;2.00;99.90
60293;DHT22;52402;52.670;6.750;2023-12-04T14:06:31;2.00;99.90
60293;DHT22;52402;52.670;6.750;2023-12-04T14:08:58;2.00;99.90
60293;DHT22;52402;52.670;6.750;2023-12-04T14:11:26;2.00;99.90
60293;DHT22;52402;52.670;6.750;2023-12-04T14:13:52;2.00;99.90
60293;DHT22;52402;52.670;6.750;2023-12-04T14:16:22;1.90;99.90
60293;DHT22;52402;52.670;6.750;2023-12-04T14:18:48;1.90;99.90
60293;DHT22;52402;52.670;6.750;2023-12-04T14:21:16;1.90;99.90
60293;DHT22;52402;52.670;6.750;2023-12-04T14:23:44;1.90;99.90
60293;DHT22;52402;52.670;6.750;2023-12-04T14:26:23;1.90;99.90
60293;DHT22;52402;52.670;6.750;2023-12-04T14:28:50;1.90;99.90
60293;DHT22;52402;52.670;6.750;2023-12-04T14:31:22;1.90;99.90
60293;DHT22;52402;52.670;6.750;2023-12-04T14:33:50;1.80;99.90
60293;DHT22;52402;52.670;6.750;2023-12-04T14:36:22;1.80;99.90
60293;DHT22;52402;52.670;6.750;2023-12-04T14:39:02;1.80;99.90
60293;DHT22;52402;52.670;6.750;2023-12-04T14:41:31;1.80;99.90
60293;DHT22;52402;52.670;6.750;2023-12-04T14:43:56;1.80;99.90
60293;DHT22;52402;52.670;6.750;2023-12-04T14:46:22;1.80;99.90
60293;DHT22;52402;52.670;6.750;2023-12-04T14:48:48;1.80;99.90
60293;DHT22;52402;52.670;6.750;2023-12-04T14:51:48;1.70;99.90
60293;DHT22;52402;52.670;6.750;2023-12-04T14:54:14;1.80;99.90
60293;DHT22;52402;52.670;6.750;2023-12-04T14:57:04;1.70;99.90
60293;DHT22;52402;52.670;6.750;2023-12-04T15:00:02;1.70;99.90
60293;DHT22;52402;52.670;6.750;2023-12-04T15:02:46;1.70;99.90
60293;DHT22;52402;52.670;6.750;2023-12-04T15:05:34;1.70;99.90
60293;DHT22;52402;52.670;6.750;2023-12-04T15:08:26;1.70;99.90
60293;DHT22;52402;52.670;6.750;2023-12-04T15:11:10;1.70;99.90
60293;DHT22;52402;52.670;6.750;2023-12-04T15:13:56;1.70;99.90
60293;DHT22;52402;52.670;6.750;2023-12-04T15:16:40;1.70;99.90
60293;DHT22;52402;52.670;6.750;2023-12-04T15:19:25;1.70;99.90
60293;DHT22;52402;52.670;6.750;2023-12-04T15:22:12;1.70;99.90
60293;DHT22;52402;52.670;6.750;2023-12-04T15:24:38;1.70;99.90
60293;DHT22;52402;52.670;6.750;2023-12-04T15:27:04;1.70;99.90
60293;DHT22;52402;52.670;6.750;2023-12-04T15:29:29;1.70;99.90
60293;DHT22;52402;52.670;6.750;2023-12-04T15:31:55;1.70;99.90
60293;DHT22;52402;52.670;6.750;2023-12-04T15:34:21;1.70;99.90
60293;DHT22;52402;52.670;6.750;2023-12-04T15:36:47;1.70;99.90
60293;DHT22;52402;52.670;6.750;2023-12-04T15:39:13;1.70;99.90
60293;DHT22;52402;52.670;6.750;2023-12-04T15:41:57;1.70;99.90
60293;DHT22;52402;52.670;6.750;2023-12-04T15:44:41;1.80;99.90
60293;DHT22;52402;52.670;6.750;2023-12-04T15:47:09;1.80;99.90
60293;DHT22;52402;52.670;6.750;2023-12-04T15:49:50;1.80;99.90
60293;DHT22;52402;52.670;6.750;2023-12-04T15:52:18;1.80;99.90
60293;DHT22;52402;52.670;6.750;2023-12-04T15:54:56;1.80;99.90
60293;DHT22;52402;52.670;6.750;2023-12-04T15:57:23;1.80;99.90
60293;DHT22;52402;52.670;6.750;2023-12-04T16:00:16;1.80;99.90